sensor_id;sensor_type;location;lat;lon;timestamp;pressure;altitude;pressure_sealevel;temperature;humidity
33454;BME280;39400;49.744;7.012;2022-10-26T00:01:04;95869.06;;;13.42;100.00
33454;BME280;39400;49.744;7.012;2022-10-26T00:03:33;95873.94;;;13.30;100.00
33454;BME280;39400;49.744;7.012;2022-10-26T00:06:05;95868.00;;;13.32;100.00
33454;BME280;39400;49.744;7.012;2022-10-26T00:08:33;95856.44;;;13.41;100.00
33454;BME280;39400;49.744;7.012;2022-10-26T00:11:00;95870.69;;;13.36;100.00
33454;BME280;39400;49.744;7.012;2022-10-26T00:13:28;95875.13;;;13.29;100.00
33454;BME280;39400;49.744;7.012;2022-10-26T00:15:55;95874.81;;;13.20;100.00
33454;BME280;39400;49.744;7.012;2022-10-26T00:18:23;95874.72;;;13.31;100.00
33454;BME280;39400;49.744;7.012;2022-10-26T00:20:50;95875.59;;;13.24;100.00
33454;BME280;39400;49.744;7.012;2022-10-26T00:23:17;95860.47;;;13.32;100.00
33454;BME280;39400;49.744;7.012;2022-10-26T00:25:53;95872.63;;;13.39;100.00
33454;BME280;39400;49.744;7.012;2022-10-26T00:28:20;95880.97;;;13.35;100.00
33454;BME280;39400;49.744;7.012;2022-10-26T00:30:47;95866.00;;;13.32;100.00
33454;BME280;39400;49.744;7.012;2022-10-26T00:33:14;95872.16;;;13.47;100.00
33454;BME280;39400;49.744;7.012;2022-10-26T00:35:41;95874.09;;;13.47;100.00
33454;BME280;39400;49.744;7.012;2022-10-26T00:38:12;95874.00;;;13.54;100.00
33454;BME280;39400;49.744;7.012;2022-10-26T00:40:39;95867.41;;;13.48;100.00
33454;BME280;39400;49.744;7.012;2022-10-26T00:45:47;95860.25;;;13.50;100.00
33454;BME280;39400;49.744;7.012;2022-10-26T00:48:18;95854.22;;;13.59;100.00
33454;BME280;39400;49.744;7.012;2022-10-26T00:50:49;95850.25;;;13.60;100.00
33454;BME280;39400;49.744;7.012;2022-10-26T00:53:17;95841.19;;;13.60;100.00
33454;BME280;39400;49.744;7.012;2022-10-26T00:55:46;95847.88;;;13.62;100.00
33454;BME280;39400;49.744;7.012;2022-10-26T00:58:14;95853.84;;;13.57;100.00
33454;BME280;39400;49.744;7.012;2022-10-26T01:00:42;95859.97;;;13.72;100.00
33454;BME280;39400;49.744;7.012;2022-10-26T01:03:10;95848.97;;;13.68;100.00
33454;BME280;39400;49.744;7.012;2022-10-26T01:05:40;95852.53;;;13.69;100.00
33454;BME280;39400;49.744;7.012;2022-10-26T01:08:08;95851.97;;;13.77;100.00
33454;BME280;39400;49.744;7.012;2022-10-26T01:10:37;95847.19;;;13.82;100.00
33454;BME280;39400;49.744;7.012;2022-10-26T01:13:06;95845.69;;;13.77;100.00
33454;BME280;39400;49.744;7.012;2022-10-26T01:24:01;95826.81;;;13.72;100.00
33454;BME280;39400;49.744;7.012;2022-10-26T01:27:00;95818.94;;;13.70;100.00
33454;BME280;39400;49.744;7.012;2022-10-26T01:35:14;95794.59;;;13.62;100.00
33454;BME280;39400;49.744;7.012;2022-10-26T01:37:47;95806.84;;;13.61;100.00
33454;BME280;39400;49.744;7.012;2022-10-26T01:40:22;95808.03;;;13.60;100.00
33454;BME280;39400;49.744;7.012;2022-10-26T01:42:53;95796.94;;;13.63;100.00
33454;BME280;39400;49.744;7.012;2022-10-26T01:45:23;95792.84;;;13.71;100.00
33454;BME280;39400;49.744;7.012;2022-10-26T01:47:51;95803.06;;;13.74;100.00
33454;BME280;39400;49.744;7.012;2022-10-26T01:50:21;95798.69;;;13.77;100.00
33454;BME280;39400;49.744;7.012;2022-10-26T01:52:49;95801.34;;;13.84;100.00
33454;BME280;39400;49.744;7.012;2022-10-26T01:55:48;95795.88;;;13.80;100.00
33454;BME280;39400;49.744;7.012;2022-10-26T02:12:40;95821.34;;;13.68;100.00
33454;BME280;39400;49.744;7.012;2022-10-26T02:20:43;95827.47;;;13.52;100.00
33454;BME280;39400;49.744;7.012;2022-10-26T02:23:12;95815.16;;;13.57;100.00
33454;BME280;39400;49.744;7.012;2022-10-26T02:25:46;95812.84;;;13.55;100.00
33454;BME280;39400;49.744;7.012;2022-10-26T02:28:18;95812.88;;;13.52;100.00
33454;BME280;39400;49.744;7.012;2022-10-26T02:30:49;95810.13;;;13.52;100.00
33454;BME280;39400;49.744;7.012;2022-10-26T02:33:19;95803.50;;;13.46;100.00
33454;BME280;39400;49.744;7.012;2022-10-26T02:35:51;95783.75;;;13.47;100.00
33454;BME280;39400;49.744;7.012;2022-10-26T02:38:19;95783.75;;;13.47;100.00
33454;BME280;39400;49.744;7.012;2022-10-26T02:40:48;95779.69;;;13.55;100.00
33454;BME280;39400;49.744;7.012;2022-10-26T02:43:17;95786.72;;;13.60;100.00
33454;BME280;39400;49.744;7.012;2022-10-26T02:45:52;95788.28;;;13.61;100.00
33454;BME280;39400;49.744;7.012;2022-10-26T02:48:21;95767.88;;;13.55;100.00
33454;BME280;39400;49.744;7.012;2022-10-26T02:56:28;95791.13;;;13.54;100.00
33454;BME280;39400;49.744;7.012;2022-10-26T02:59:03;95775.16;;;13.42;100.00
33454;BME280;39400;49.744;7.012;2022-10-26T03:01:32;95770.56;;;13.31;100.00
33454;BME280;39400;49.744;7.012;2022-10-26T03:04:00;95777.47;;;13.43;100.00
33454;BME280;39400;49.744;7.012;2022-10-26T03:06:27;95779.47;;;13.43;100.00
33454;BME280;39400;49.744;7.012;2022-10-26T03:08:54;95750.13;;;13.25;100.00
33454;BME280;39400;49.744;7.012;2022-10-26T03:11:21;95773.69;;;13.34;100.00
33454;BME280;39400;49.744;7.012;2022-10-26T03:13:48;95765.66;;;13.43;100.00
33454;BME280;39400;49.744;7.012;2022-10-26T03:16:15;95778.03;;;13.35;100.00
33454;BME280;39400;49.744;7.012;2022-10-26T03:18:43;95772.91;;;13.33;100.00
33454;BME280;39400;49.744;7.012;2022-10-26T03:21:10;95780.81;;;13.31;100.00
33454;BME280;39400;49.744;7.012;2022-10-26T03:23:37;95770.22;;;13.26;100.00
33454;BME280;39400;49.744;7.012;2022-10-26T03:26:04;95778.84;;;13.31;100.00
33454;BME280;39400;49.744;7.012;2022-10-26T03:28:31;95780.06;;;13.30;100.00
33454;BME280;39400;49.744;7.012;2022-10-26T03:30:58;95782.94;;;13.20;100.00
33454;BME280;39400;49.744;7.012;2022-10-26T03:33:25;95784.25;;;13.08;100.00
33454;BME280;39400;49.744;7.012;2022-10-26T03:35:54;95781.88;;;13.10;100.00
33454;BME280;39400;49.744;7.012;2022-10-26T03:38:22;95783.50;;;13.04;100.00
33454;BME280;39400;49.744;7.012;2022-10-26T03:40:49;95785.97;;;12.95;100.00
33454;BME280;39400;49.744;7.012;2022-10-26T03:43:17;95782.06;;;12.96;100.00
33454;BME280;39400;49.744;7.012;2022-10-26T03:45:44;95776.56;;;12.92;100.00
33454;BME280;39400;49.744;7.012;2022-10-26T03:48:11;95760.88;;;12.85;100.00
33454;BME280;39400;49.744;7.012;2022-10-26T03:50:38;95781.47;;;12.77;100.00
33454;BME280;39400;49.744;7.012;2022-10-26T03:53:06;95773.56;;;12.79;100.00
33454;BME280;39400;49.744;7.012;2022-10-26T03:55:34;95767.28;;;12.79;100.00
33454;BME280;39400;49.744;7.012;2022-10-26T03:58:01;95769.34;;;12.71;100.00
33454;BME280;39400;49.744;7.012;2022-10-26T04:00:28;95772.84;;;12.75;100.00
33454;BME280;39400;49.744;7.012;2022-10-26T04:02:57;95770.59;;;12.63;100.00
33454;BME280;39400;49.744;7.012;2022-10-26T04:05:25;95768.13;;;12.72;100.00
33454;BME280;39400;49.744;7.012;2022-10-26T04:07:57;95761.53;;;12.63;100.00
33454;BME280;39400;49.744;7.012;2022-10-26T04:10:26;95772.97;;;12.65;100.00
33454;BME280;39400;49.744;7.012;2022-10-26T04:12:53;95765.16;;;12.56;100.00
33454;BME280;39400;49.744;7.012;2022-10-26T04:15:21;95764.72;;;12.61;100.00
33454;BME280;39400;49.744;7.012;2022-10-26T04:17:55;95770.69;;;12.56;100.00
33454;BME280;39400;49.744;7.012;2022-10-26T04:20:22;95764.38;;;12.55;100.00
33454;BME280;39400;49.744;7.012;2022-10-26T04:22:59;95757.53;;;12.67;100.00
33454;BME280;39400;49.744;7.012;2022-10-26T04:25:27;95757.19;;;12.65;100.00
33454;BME280;39400;49.744;7.012;2022-10-26T04:28:01;95769.78;;;12.66;100.00
33454;BME280;39400;49.744;7.012;2022-10-26T04:30:29;95772.31;;;12.50;100.00
33454;BME280;39400;49.744;7.012;2022-10-26T04:32:56;95776.19;;;12.56;100.00
33454;BME280;39400;49.744;7.012;2022-10-26T04:35:23;95785.09;;;12.36;100.00
33454;BME280;39400;49.744;7.012;2022-10-26T04:37:50;95793.13;;;12.17;100.00
33454;BME280;39400;49.744;7.012;2022-10-26T04:40:18;95778.38;;;12.37;100.00
33454;BME280;39400;49.744;7.012;2022-10-26T04:42:46;95789.91;;;12.63;100.00
33454;BME280;39400;49.744;7.012;2022-10-26T04:45:15;95796.53;;;12.69;100.00
33454;BME280;39400;49.744;7.012;2022-10-26T04:47:42;95803.53;;;12.77;100.00
33454;BME280;39400;49.744;7.012;2022-10-26T04:50:11;95794.09;;;12.78;100.00
33454;BME280;39400;49.744;7.012;2022-10-26T04:52:39;95796.38;;;12.83;100.00
33454;BME280;39400;49.744;7.012;2022-10-26T04:55:07;95790.09;;;12.83;100.00
33454;BME280;39400;49.744;7.012;2022-10-26T04:57:34;95795.94;;;12.89;100.00
33454;BME280;39400;49.744;7.012;2022-10-26T05:00:03;95804.22;;;12.89;100.00
33454;BME280;39400;49.744;7.012;2022-10-26T05:02:31;95800.25;;;12.90;100.00
33454;BME280;39400;49.744;7.012;2022-10-26T05:04:59;95808.97;;;12.84;100.00
33454;BME280;39400;49.744;7.012;2022-10-26T05:07:26;95815.25;;;12.89;100.00
33454;BME280;39400;49.744;7.012;2022-10-26T05:09:53;95816.56;;;12.77;100.00
33454;BME280;39400;49.744;7.012;2022-10-26T05:12:20;95820.09;;;12.77;100.00
33454;BME280;39400;49.744;7.012;2022-10-26T05:14:47;95816.59;;;12.73;100.00
33454;BME280;39400;49.744;7.012;2022-10-26T05:17:14;95811.16;;;12.66;100.00
33454;BME280;39400;49.744;7.012;2022-10-26T05:19:41;95819.00;;;12.71;100.00
33454;BME280;39400;49.744;7.012;2022-10-26T05:22:09;95824.13;;;12.69;100.00
33454;BME280;39400;49.744;7.012;2022-10-26T05:24:36;95832.78;;;12.71;100.00
33454;BME280;39400;49.744;7.012;2022-10-26T05:27:03;95831.19;;;12.70;100.00
33454;BME280;39400;49.744;7.012;2022-10-26T05:29:30;95847.06;;;12.63;100.00
33454;BME280;39400;49.744;7.012;2022-10-26T05:31:57;95849.38;;;12.64;100.00
33454;BME280;39400;49.744;7.012;2022-10-26T05:34:24;95836.44;;;12.61;100.00
33454;BME280;39400;49.744;7.012;2022-10-26T05:36:52;95832.78;;;12.71;100.00
33454;BME280;39400;49.744;7.012;2022-10-26T05:39:21;95840.00;;;12.58;100.00
33454;BME280;39400;49.744;7.012;2022-10-26T05:41:48;95840.78;;;12.58;100.00
33454;BME280;39400;49.744;7.012;2022-10-26T05:44:15;95847.16;;;12.52;100.00
33454;BME280;39400;49.744;7.012;2022-10-26T05:46:42;95843.28;;;12.46;100.00
33454;BME280;39400;49.744;7.012;2022-10-26T05:49:09;95851.16;;;12.47;100.00
33454;BME280;39400;49.744;7.012;2022-10-26T05:51:36;95856.50;;;12.65;100.00
33454;BME280;39400;49.744;7.012;2022-10-26T05:54:05;95854.16;;;12.60;100.00
33454;BME280;39400;49.744;7.012;2022-10-26T05:56:38;95851.03;;;12.58;100.00
33454;BME280;39400;49.744;7.012;2022-10-26T05:59:14;95849.81;;;12.63;100.00
33454;BME280;39400;49.744;7.012;2022-10-26T06:04:38;95862.00;;;12.65;100.00
33454;BME280;39400;49.744;7.012;2022-10-26T06:07:11;95866.72;;;12.68;100.00
33454;BME280;39400;49.744;7.012;2022-10-26T06:09:40;95865.66;;;12.55;100.00
33454;BME280;39400;49.744;7.012;2022-10-26T06:12:08;95879.34;;;12.66;100.00
33454;BME280;39400;49.744;7.012;2022-10-26T06:14:36;95876.56;;;12.66;100.00
33454;BME280;39400;49.744;7.012;2022-10-26T06:30:29;95907.03;;;12.55;100.00
33454;BME280;39400;49.744;7.012;2022-10-26T06:32:56;95917.97;;;12.66;100.00
33454;BME280;39400;49.744;7.012;2022-10-26T06:38:10;95934.19;;;12.56;100.00
33454;BME280;39400;49.744;7.012;2022-10-26T06:40:42;95923.59;;;12.51;100.00
33454;BME280;39400;49.744;7.012;2022-10-26T06:43:22;95936.16;;;12.56;100.00
33454;BME280;39400;49.744;7.012;2022-10-26T06:45:55;95942.44;;;12.60;100.00
33454;BME280;39400;49.744;7.012;2022-10-26T06:48:28;95931.25;;;12.74;100.00
33454;BME280;39400;49.744;7.012;2022-10-26T06:50:59;95932.03;;;12.78;100.00
33454;BME280;39400;49.744;7.012;2022-10-26T06:53:30;95934.78;;;12.78;100.00
33454;BME280;39400;49.744;7.012;2022-10-26T06:55:59;95948.53;;;12.85;100.00
33454;BME280;39400;49.744;7.012;2022-10-26T06:58:33;95945.44;;;12.76;100.00
33454;BME280;39400;49.744;7.012;2022-10-26T07:01:02;95948.59;;;12.78;100.00
33454;BME280;39400;49.744;7.012;2022-10-26T07:03:29;95942.22;;;12.81;100.00
33454;BME280;39400;49.744;7.012;2022-10-26T07:05:56;95943.88;;;12.75;100.00
33454;BME280;39400;49.744;7.012;2022-10-26T07:08:23;95947.75;;;12.81;100.00
33454;BME280;39400;49.744;7.012;2022-10-26T07:10:51;95951.63;;;12.88;100.00
33454;BME280;39400;49.744;7.012;2022-10-26T07:13:18;95948.53;;;12.85;100.00
33454;BME280;39400;49.744;7.012;2022-10-26T07:15:45;95942.13;;;12.96;100.00
33454;BME280;39400;49.744;7.012;2022-10-26T07:18:13;95951.56;;;12.95;100.00
33454;BME280;39400;49.744;7.012;2022-10-26T07:20:41;95952.81;;;12.90;100.00
33454;BME280;39400;49.744;7.012;2022-10-26T07:23:08;95952.38;;;12.92;100.00
33454;BME280;39400;49.744;7.012;2022-10-26T07:25:37;95964.31;;;12.81;100.00
33454;BME280;39400;49.744;7.012;2022-10-26T07:28:07;95980.75;;;12.96;100.00
33454;BME280;39400;49.744;7.012;2022-10-26T07:30:37;95979.50;;;13.04;100.00
33454;BME280;39400;49.744;7.012;2022-10-26T07:33:10;95979.84;;;13.09;100.00
33454;BME280;39400;49.744;7.012;2022-10-26T07:35:38;95978.91;;;13.23;100.00
33454;BME280;39400;49.744;7.012;2022-10-26T07:38:05;95985.88;;;13.39;100.00
33454;BME280;39400;49.744;7.012;2022-10-26T07:40:33;95996.41;;;13.51;100.00
33454;BME280;39400;49.744;7.012;2022-10-26T07:43:00;96003.75;;;13.61;100.00
33454;BME280;39400;49.744;7.012;2022-10-26T07:45:28;96002.53;;;13.66;100.00
33454;BME280;39400;49.744;7.012;2022-10-26T07:47:55;96003.41;;;13.59;100.00
33454;BME280;39400;49.744;7.012;2022-10-26T07:50:23;96012.19;;;13.50;100.00
33454;BME280;39400;49.744;7.012;2022-10-26T07:52:50;96010.25;;;13.44;100.00
33454;BME280;39400;49.744;7.012;2022-10-26T07:55:18;96017.38;;;13.45;100.00
33454;BME280;39400;49.744;7.012;2022-10-26T07:57:46;96019.69;;;13.50;100.00
33454;BME280;39400;49.744;7.012;2022-10-26T08:00:19;96024.81;;;13.51;100.00
33454;BME280;39400;49.744;7.012;2022-10-26T08:02:46;96033.88;;;13.52;100.00
33454;BME280;39400;49.744;7.012;2022-10-26T08:05:14;96041.78;;;13.50;100.00
33454;BME280;39400;49.744;7.012;2022-10-26T08:07:42;96044.97;;;13.48;100.00
33454;BME280;39400;49.744;7.012;2022-10-26T08:10:10;96047.31;;;13.50;100.00
33454;BME280;39400;49.744;7.012;2022-10-26T08:12:38;96056.00;;;13.48;100.00
33454;BME280;39400;49.744;7.012;2022-10-26T08:15:06;96048.91;;;13.51;100.00
33454;BME280;39400;49.744;7.012;2022-10-26T08:17:34;96058.31;;;13.53;100.00
33454;BME280;39400;49.744;7.012;2022-10-26T08:20:01;96061.13;;;13.50;100.00
33454;BME280;39400;49.744;7.012;2022-10-26T08:22:28;96055.16;;;13.55;100.00
33454;BME280;39400;49.744;7.012;2022-10-26T08:24:56;96059.00;;;13.65;100.00
33454;BME280;39400;49.744;7.012;2022-10-26T08:27:24;96060.50;;;13.73;100.00
33454;BME280;39400;49.744;7.012;2022-10-26T08:29:51;96058.00;;;13.86;100.00
33454;BME280;39400;49.744;7.012;2022-10-26T08:32:19;96053.97;;;13.90;100.00
33454;BME280;39400;49.744;7.012;2022-10-26T08:34:46;96048.69;;;14.03;100.00
33454;BME280;39400;49.744;7.012;2022-10-26T08:37:13;96056.91;;;14.10;100.00
33454;BME280;39400;49.744;7.012;2022-10-26T08:39:40;96061.28;;;14.08;100.00
33454;BME280;39400;49.744;7.012;2022-10-26T08:42:26;96062.47;;;14.07;100.00
33454;BME280;39400;49.744;7.012;2022-10-26T08:44:58;96070.81;;;14.03;100.00
33454;BME280;39400;49.744;7.012;2022-10-26T08:47:31;96072.78;;;14.02;100.00
33454;BME280;39400;49.744;7.012;2022-10-26T08:50:05;96074.31;;;14.07;100.00
33454;BME280;39400;49.744;7.012;2022-10-26T08:53:06;96077.81;;;14.11;100.00
33454;BME280;39400;49.744;7.012;2022-10-26T08:56:26;96075.09;;;14.08;100.00
33454;BME280;39400;49.744;7.012;2022-10-26T08:58:56;96078.25;;;14.06;100.00
33454;BME280;39400;49.744;7.012;2022-10-26T09:01:24;96097.19;;;14.11;100.00
33454;BME280;39400;49.744;7.012;2022-10-26T09:03:51;96093.25;;;14.09;100.00
33454;BME280;39400;49.744;7.012;2022-10-26T09:06:54;96103.44;;;14.15;100.00
33454;BME280;39400;49.744;7.012;2022-10-26T09:09:34;96113.13;;;14.00;100.00
33454;BME280;39400;49.744;7.012;2022-10-26T09:15:00;96120.59;;;14.03;100.00
33454;BME280;39400;49.744;7.012;2022-10-26T09:21:15;96132.66;;;14.16;100.00
33454;BME280;39400;49.744;7.012;2022-10-26T09:24:04;96120.78;;;14.19;100.00
33454;BME280;39400;49.744;7.012;2022-10-26T09:29:11;96131.22;;;14.39;100.00
33454;BME280;39400;49.744;7.012;2022-10-26T09:31:42;96134.72;;;14.43;100.00
33454;BME280;39400;49.744;7.012;2022-10-26T09:34:17;96133.44;;;14.51;100.00
33454;BME280;39400;49.744;7.012;2022-10-26T09:36:52;96145.84;;;14.39;100.00
33454;BME280;39400;49.744;7.012;2022-10-26T09:39:29;96143.25;;;14.59;100.00
33454;BME280;39400;49.744;7.012;2022-10-26T09:42:07;96146.28;;;14.68;100.00
33454;BME280;39400;49.744;7.012;2022-10-26T09:44:45;96139.63;;;14.93;100.00
33454;BME280;39400;49.744;7.012;2022-10-26T09:47:30;96132.63;;;14.85;100.00
33454;BME280;39400;49.744;7.012;2022-10-26T09:52:32;96152.78;;;15.12;100.00
33454;BME280;39400;49.744;7.012;2022-10-26T09:54:59;96154.22;;;15.24;100.00
33454;BME280;39400;49.744;7.012;2022-10-26T09:57:26;96160.03;;;15.30;100.00
33454;BME280;39400;49.744;7.012;2022-10-26T09:59:55;96158.81;;;15.31;100.00
33454;BME280;39400;49.744;7.012;2022-10-26T10:02:39;96153.19;;;15.38;100.00
33454;BME280;39400;49.744;7.012;2022-10-26T10:05:29;96170.13;;;15.43;100.00
33454;BME280;39400;49.744;7.012;2022-10-26T10:08:22;96172.97;;;15.63;100.00
33454;BME280;39400;49.744;7.012;2022-10-26T10:11:13;96169.44;;;15.36;100.00
33454;BME280;39400;49.744;7.012;2022-10-26T10:13:44;96171.16;;;15.53;100.00
33454;BME280;39400;49.744;7.012;2022-10-26T10:16:19;96168.50;;;15.46;100.00
33454;BME280;39400;49.744;7.012;2022-10-26T10:18:55;96172.50;;;15.68;100.00
33454;BME280;39400;49.744;7.012;2022-10-26T10:21:37;96179.50;;;15.77;100.00
33454;BME280;39400;49.744;7.012;2022-10-26T10:24:26;96176.22;;;16.05;100.00
33454;BME280;39400;49.744;7.012;2022-10-26T10:26:59;96170.91;;;16.14;100.00
33454;BME280;39400;49.744;7.012;2022-10-26T10:29:39;96174.50;;;16.35;100.00
33454;BME280;39400;49.744;7.012;2022-10-26T10:32:14;96178.41;;;16.17;100.00
33454;BME280;39400;49.744;7.012;2022-10-26T10:34:42;96181.75;;;16.29;100.00
33454;BME280;39400;49.744;7.012;2022-10-26T10:37:25;96187.09;;;15.96;100.00
33454;BME280;39400;49.744;7.012;2022-10-26T10:40:02;96192.63;;;15.96;100.00
33454;BME280;39400;49.744;7.012;2022-10-26T10:42:32;96193.66;;;15.82;100.00
33454;BME280;39400;49.744;7.012;2022-10-26T10:45:00;96188.78;;;15.90;100.00
33454;BME280;39400;49.744;7.012;2022-10-26T10:47:32;96192.28;;;16.17;100.00
33454;BME280;39400;49.744;7.012;2022-10-26T10:50:06;96197.19;;;16.30;100.00
33454;BME280;39400;49.744;7.012;2022-10-26T10:52:41;96188.28;;;16.19;100.00
33454;BME280;39400;49.744;7.012;2022-10-26T10:55:16;96194.97;;;16.41;100.00
33454;BME280;39400;49.744;7.012;2022-10-26T11:00:28;96181.88;;;16.61;100.00
33454;BME280;39400;49.744;7.012;2022-10-26T11:03:14;96187.88;;;16.80;100.00
33454;BME280;39400;49.744;7.012;2022-10-26T11:06:03;96186.81;;;16.74;100.00
33454;BME280;39400;49.744;7.012;2022-10-26T11:08:39;96191.44;;;16.60;100.00
33454;BME280;39400;49.744;7.012;2022-10-26T11:11:35;96195.78;;;16.81;100.00
33454;BME280;39400;49.744;7.012;2022-10-26T11:14:15;96193.38;;;16.83;100.00
33454;BME280;39400;49.744;7.012;2022-10-26T11:17:10;96204.19;;;16.78;100.00
33454;BME280;39400;49.744;7.012;2022-10-26T11:19:46;96197.56;;;16.92;100.00
33454;BME280;39400;49.744;7.012;2022-10-26T11:22:20;96201.13;;;16.92;100.00
33454;BME280;39400;49.744;7.012;2022-10-26T11:24:57;96205.66;;;17.02;100.00
33454;BME280;39400;49.744;7.012;2022-10-26T11:27:32;96206.22;;;17.14;100.00
33454;BME280;39400;49.744;7.012;2022-10-26T11:30:13;96205.50;;;17.09;100.00
33454;BME280;39400;49.744;7.012;2022-10-26T11:33:05;96202.13;;;17.02;100.00
33454;BME280;39400;49.744;7.012;2022-10-26T11:35:58;96206.22;;;17.14;100.00
33454;BME280;39400;49.744;7.012;2022-10-26T11:44:33;96211.13;;;17.42;100.00
33454;BME280;39400;49.744;7.012;2022-10-26T11:47:35;96205.56;;;17.42;100.00
33454;BME280;39400;49.744;7.012;2022-10-26T11:50:24;96211.34;;;17.68;100.00
33454;BME280;39400;49.744;7.012;2022-10-26T11:55:29;96213.53;;;17.76;100.00
33454;BME280;39400;49.744;7.012;2022-10-26T11:57:57;96215.16;;;17.74;100.00
33454;BME280;39400;49.744;7.012;2022-10-26T12:00:25;96217.28;;;17.86;100.00
33454;BME280;39400;49.744;7.012;2022-10-26T12:03:06;96220.91;;;17.99;100.00
33454;BME280;39400;49.744;7.012;2022-10-26T12:05:44;96219.09;;;18.09;100.00
33454;BME280;39400;49.744;7.012;2022-10-26T12:08:34;96227.69;;;18.15;100.00
33454;BME280;39400;49.744;7.012;2022-10-26T12:13:59;96222.66;;;18.55;100.00
33454;BME280;39400;49.744;7.012;2022-10-26T12:19:20;96229.25;;;18.16;100.00
33454;BME280;39400;49.744;7.012;2022-10-26T12:21:51;96232.38;;;18.18;100.00
33454;BME280;39400;49.744;7.012;2022-10-26T12:24:29;96245.97;;;18.16;100.00
33454;BME280;39400;49.744;7.012;2022-10-26T12:27:03;96232.56;;;18.11;100.00
33454;BME280;39400;49.744;7.012;2022-10-26T12:29:31;96236.56;;;18.10;100.00
33454;BME280;39400;49.744;7.012;2022-10-26T12:31:59;96233.50;;;18.37;100.00
33454;BME280;39400;49.744;7.012;2022-10-26T12:39:35;96254.72;;;18.76;100.00
33454;BME280;39400;49.744;7.012;2022-10-26T12:44:59;96267.09;;;18.59;100.00
33454;BME280;39400;49.744;7.012;2022-10-26T12:52:49;96268.03;;;18.39;100.00
33454;BME280;39400;49.744;7.012;2022-10-26T13:03:55;96275.81;;;18.61;100.00
33454;BME280;39400;49.744;7.012;2022-10-26T13:09:31;96286.13;;;18.31;100.00
33454;BME280;39400;49.744;7.012;2022-10-26T13:12:01;96287.34;;;17.97;100.00
33454;BME280;39400;49.744;7.012;2022-10-26T13:14:38;96289.09;;;18.24;100.00
33454;BME280;39400;49.744;7.012;2022-10-26T13:17:23;96299.66;;;18.62;100.00
33454;BME280;39400;49.744;7.012;2022-10-26T13:19:55;96295.50;;;18.53;100.00
33454;BME280;39400;49.744;7.012;2022-10-26T13:22:23;96298.91;;;18.90;100.00
33454;BME280;39400;49.744;7.012;2022-10-26T13:24:57;96301.28;;;22.43;92.79
33454;BME280;39400;49.744;7.012;2022-10-26T13:27:39;96298.78;;;23.55;81.27
33454;BME280;39400;49.744;7.012;2022-10-26T13:30:20;96298.28;;;24.17;76.69
33454;BME280;39400;49.744;7.012;2022-10-26T13:33:01;96300.59;;;23.95;75.53
33454;BME280;39400;49.744;7.012;2022-10-26T13:35:29;96302.75;;;24.42;74.71
33454;BME280;39400;49.744;7.012;2022-10-26T13:37:59;96302.78;;;24.57;72.06
33454;BME280;39400;49.744;7.012;2022-10-26T13:40:28;96301.34;;;24.05;72.18
33454;BME280;39400;49.744;7.012;2022-10-26T13:42:57;96292.59;;;24.36;69.22
33454;BME280;39400;49.744;7.012;2022-10-26T13:45:33;96306.91;;;22.52;75.32
33454;BME280;39400;49.744;7.012;2022-10-26T13:48:11;96292.75;;;24.65;70.35
33454;BME280;39400;49.744;7.012;2022-10-26T13:50:50;96288.56;;;22.69;72.34
33454;BME280;39400;49.744;7.012;2022-10-26T13:55:56;96291.66;;;22.03;77.48
33454;BME280;39400;49.744;7.012;2022-10-26T13:58:40;96294.06;;;23.00;76.21
33454;BME280;39400;49.744;7.012;2022-10-26T14:03:36;96308.06;;;22.23;74.89
33454;BME280;39400;49.744;7.012;2022-10-26T14:06:12;96301.94;;;22.65;74.15
33454;BME280;39400;49.744;7.012;2022-10-26T14:08:42;96305.28;;;21.61;78.80
33454;BME280;39400;49.744;7.012;2022-10-26T14:11:11;96297.88;;;21.01;80.35
33454;BME280;39400;49.744;7.012;2022-10-26T14:13:40;96303.53;;;20.54;85.04
33454;BME280;39400;49.744;7.012;2022-10-26T14:16:09;96307.13;;;20.41;84.10
33454;BME280;39400;49.744;7.012;2022-10-26T14:18:41;96309.56;;;20.65;84.57
33454;BME280;39400;49.744;7.012;2022-10-26T14:21:14;96308.69;;;22.18;80.01
33454;BME280;39400;49.744;7.012;2022-10-26T14:23:58;96316.50;;;20.48;82.92
33454;BME280;39400;49.744;7.012;2022-10-26T14:26:28;96316.28;;;20.29;84.33
33454;BME280;39400;49.744;7.012;2022-10-26T14:28:58;96320.63;;;20.56;84.10
33454;BME280;39400;49.744;7.012;2022-10-26T14:31:30;96325.13;;;22.07;80.22
33454;BME280;39400;49.744;7.012;2022-10-26T14:33:59;96334.75;;;22.06;77.38
33454;BME280;39400;49.744;7.012;2022-10-26T14:36:36;96334.88;;;20.83;81.22
33454;BME280;39400;49.744;7.012;2022-10-26T14:39:29;96345.28;;;20.70;85.50
33454;BME280;39400;49.744;7.012;2022-10-26T14:41:59;96336.88;;;20.10;87.92
33454;BME280;39400;49.744;7.012;2022-10-26T14:44:28;96349.06;;;20.16;88.23
33454;BME280;39400;49.744;7.012;2022-10-26T14:46:55;96351.31;;;19.54;88.13
33454;BME280;39400;49.744;7.012;2022-10-26T14:49:25;96366.88;;;19.67;90.82
33454;BME280;39400;49.744;7.012;2022-10-26T14:52:04;96365.63;;;19.39;92.56
33454;BME280;39400;49.744;7.012;2022-10-26T14:54:32;96363.63;;;19.69;92.62
33454;BME280;39400;49.744;7.012;2022-10-26T14:57:00;96359.66;;;20.21;89.25
33454;BME280;39400;49.744;7.012;2022-10-26T14:59:35;96366.06;;;19.67;91.83
33454;BME280;39400;49.744;7.012;2022-10-26T15:02:21;96366.25;;;19.60;92.79
33454;BME280;39400;49.744;7.012;2022-10-26T15:05:02;96369.16;;;20.24;91.15
33454;BME280;39400;49.744;7.012;2022-10-26T15:07:37;96358.25;;;20.77;89.06
33454;BME280;39400;49.744;7.012;2022-10-26T15:10:04;96377.06;;;20.00;91.52
33454;BME280;39400;49.744;7.012;2022-10-26T15:12:34;96371.97;;;22.38;83.99
33454;BME280;39400;49.744;7.012;2022-10-26T15:15:09;96370.88;;;23.40;77.03